Terminal Aerodrome Forecast
Issued by NWS

Home | Current Version | Previous Version | Text Only | Print | Product List | Glossary On
Versions: 1 2 3 4 5 6 7 8 9 10 11 12 13 14 15 16 17 18 19
020
FTUS43 KGRB 072338
TAFAUW
TAF
KAUW 072338Z 0800/0824 26007KT P6SM -SN SCT025 BKN035
      TEMPO 0800/0803 BKN025
     FM080300 27009KT 6SM -SN SCT015 BKN025
      TEMPO 0803/0806 4SM -SN BKN015
     FM080600 30010G15KT 3SM -SN BKN010
     FM081200 32012G22KT 3SM -SN BR OVC012=

USA.gov is the U.S. government's official web portal to all federal, state and local government web resources and services.